Time;durP1;ratioP1;P1;durP2;ratioP2;P2;SDS_P1;SDS_P2;PMS_P1;PMS_P2;Temp;Humidity;BMP_temperature;BMP_pressure;BME280_temperature;BME280_humidity;BME280_pressure;Samples;Min_cycle;Max_cycle;Signal;HPM_P1;HPM_P2
2023/01/08 00:01:09;;;;;;;5.60;2.30;;;;;;;;;;5066876;28;20040;-64
2023/01/08 00:03:36;;;;;;;4.63;2.40;;;;;;;;;;5064767;28;20040;-64
2023/01/08 00:06:03;;;;;;;4.93;3.03;;;;;;;;;;5068396;28;20445;-64
2023/01/08 00:08:29;;;;;;;5.63;2.63;;;;;;;;;;5063883;28;20052;-64
2023/01/08 00:10:55;;;;;;;9.73;2.70;;;;;;;;;;5061700;28;20037;-64
2023/01/08 00:13:22;;;;;;;7.37;2.90;;;;;;;;;;5062185;28;20449;-64
2023/01/08 00:15:48;;;;;;;7.47;3.60;;;;;;;;;;5056550;28;20045;-63
2023/01/08 00:18:14;;;;;;;4.83;2.90;;;;;;;;;;5056800;28;20071;-64
2023/01/08 00:20:43;;;;;;;5.00;3.37;;;;;;;;;;5062309;28;20777;-64
2023/01/08 00:23:13;;;;;;;7.63;2.77;;;;;;;;;;5061608;28;20040;-64
2023/01/08 00:25:39;;;;;;;5.03;2.57;;;;;;;;;;5056588;28;20070;-63
2023/01/08 00:28:05;;;;;;;5.70;2.90;;;;;;;;;;5058634;28;20584;-64
2023/01/08 00:30:31;;;;;;;4.80;2.60;;;;;;;;;;5058237;28;20056;-64
2023/01/08 00:32:57;;;;;;;5.37;3.27;;;;;;;;;;5055977;28;20045;-64
2023/01/08 00:35:23;;;;;;;4.57;2.67;;;;;;;;;;5065674;28;20415;-64
2023/01/08 00:37:49;;;;;;;4.27;2.77;;;;;;;;;;5069381;28;20063;-64
2023/01/08 00:40:15;;;;;;;3.80;2.63;;;;;;;;;;5069490;28;20044;-64
2023/01/08 00:42:41;;;;;;;5.50;2.80;;;;;;;;;;5068967;28;20101;-64
2023/01/08 00:45:07;;;;;;;5.43;3.27;;;;;;;;;;5057161;28;20052;-64
2023/01/08 00:47:33;;;;;;;5.77;3.10;;;;;;;;;;5054604;28;20048;-64
2023/01/08 00:50:00;;;;;;;4.93;3.53;;;;;;;;;;5069713;28;20052;-63
2023/01/08 00:52:26;;;;;;;5.77;3.40;;;;;;;;;;5069205;28;20128;-64
2023/01/08 00:54:52;;;;;;;5.73;2.93;;;;;;;;;;5068903;28;20056;-64
2023/01/08 00:57:18;;;;;;;6.17;3.77;;;;;;;;;;5051702;28;20516;-64
2023/01/08 00:59:44;;;;;;;6.23;3.97;;;;;;;;;;5049233;28;20403;-64
2023/01/08 01:02:10;;;;;;;6.67;3.70;;;;;;;;;;5068872;28;20053;-64
2023/01/08 01:04:36;;;;;;;4.90;3.27;;;;;;;;;;5069105;28;20474;-65
2023/01/08 01:07:02;;;;;;;6.73;3.10;;;;;;;;;;5069347;28;20080;-65
2023/01/08 01:09:28;;;;;;;8.87;2.73;;;;;;;;;;5060620;28;20102;-65
2023/01/08 01:11:55;;;;;;;9.10;2.40;;;;;;;;;;5049371;28;20072;-65
2023/01/08 01:14:21;;;;;;;7.47;2.63;;;;;;;;;;5048993;28;20598;-66
2023/01/08 01:16:47;;;;;;;10.67;2.00;;;;;;;;;;5049333;28;20128;-65
2023/01/08 01:19:13;;;;;;;6.53;1.57;;;;;;;;;;5049232;28;20053;-65
2023/01/08 01:21:39;;;;;;;5.20;1.53;;;;;;;;;;5049170;28;20045;-65
2023/01/08 01:24:06;;;;;;;8.50;1.73;;;;;;;;;;5049073;28;20045;-66
2023/01/08 01:26:33;;;;;;;5.67;1.37;;;;;;;;;;5048815;28;20098;-65
2023/01/08 01:28:59;;;;;;;10.67;1.47;;;;;;;;;;5063637;28;20078;-65
2023/01/08 01:31:26;;;;;;;9.87;1.93;;;;;;;;;;5067759;28;20479;-66
2023/01/08 01:33:52;;;;;;;10.77;1.90;;;;;;;;;;5066763;28;20095;-65
2023/01/08 01:36:21;;;;;;;8.80;1.37;;;;;;;;;;5067997;28;20045;-65
2023/01/08 01:38:49;;;;;;;9.63;1.50;;;;;;;;;;5067759;28;20048;-65
2023/01/08 01:41:18;;;;;;;13.07;2.10;;;;;;;;;;5069734;28;20045;-66
2023/01/08 01:43:44;;;;;;;7.13;1.60;;;;;;;;;;5072388;28;20181;-65
2023/01/08 01:46:31;;;;;;;12.77;1.93;;;;;;;;;;5070998;28;20044;-65
2023/01/08 01:48:59;;;;;;;11.27;2.20;;;;;;;;;;5072380;28;20051;-65
2023/01/08 01:51:29;;;;;;;7.83;2.03;;;;;;;;;;5072330;28;20052;-65
2023/01/08 01:53:55;;;;;;;12.47;2.30;;;;;;;;;;5070229;28;20044;-66
2023/01/08 01:56:22;;;;;;;13.20;2.30;;;;;;;;;;5072452;28;20045;-65
2023/01/08 01:58:48;;;;;;;11.17;2.23;;;;;;;;;;5071253;28;20041;-67
2023/01/08 02:01:14;;;;;;;12.77;2.00;;;;;;;;;;5071717;28;20109;-67
2023/01/08 02:03:40;;;;;;;15.10;2.37;;;;;;;;;;5071891;28;20048;-66
2023/01/08 02:06:22;;;;;;;14.67;2.13;;;;;;;;;;5072270;28;20040;-66
2023/01/08 02:09:08;;;;;;;13.27;2.40;;;;;;;;;;5072263;28;20506;-66
2023/01/08 02:11:40;;;;;;;13.43;3.07;;;;;;;;;;5072122;28;20045;-66
2023/01/08 02:14:12;;;;;;;15.67;2.40;;;;;;;;;;5071877;28;20056;-66
2023/01/08 02:16:53;;;;;;;18.93;2.87;;;;;;;;;;5072400;28;20045;-66
2023/01/08 02:19:19;;;;;;;18.33;2.50;;;;;;;;;;5070496;28;20040;-66
2023/01/08 02:21:45;;;;;;;15.90;3.00;;;;;;;;;;5071685;28;20091;-66
2023/01/08 02:24:14;;;;;;;11.53;2.40;;;;;;;;;;5071373;28;20098;-66
2023/01/08 02:26:41;;;;;;;13.73;2.27;;;;;;;;;;5069055;28;20045;-66
2023/01/08 02:29:07;;;;;;;14.70;2.90;;;;;;;;;;5071808;28;20419;-66
2023/01/08 02:31:33;;;;;;;13.30;2.47;;;;;;;;;;5071648;28;20624;-66
2023/01/08 02:34:00;;;;;;;15.63;3.17;;;;;;;;;;5071721;28;20437;-66
2023/01/08 02:36:29;;;;;;;10.73;1.80;;;;;;;;;;5071395;28;20062;-66
2023/01/08 02:39:03;;;;;;;12.73;2.30;;;;;;;;;;5071051;28;20131;-65
2023/01/08 02:41:43;;;;;;;6.93;1.40;;;;;;;;;;5071496;28;20526;-65
2023/01/08 02:44:12;;;;;;;14.87;2.07;;;;;;;;;;5070367;28;20050;-66
2023/01/08 02:46:39;;;;;;;17.37;2.83;;;;;;;;;;5071233;28;20063;-64
2023/01/08 02:49:08;;;;;;;9.87;2.10;;;;;;;;;;5071077;28;20045;-63
2023/01/08 02:51:36;;;;;;;10.50;2.27;;;;;;;;;;5052960;28;20052;-64
2023/01/08 02:54:03;;;;;;;9.40;2.57;;;;;;;;;;5069878;28;20048;-64
2023/01/08 02:56:34;;;;;;;12.43;2.50;;;;;;;;;;5070121;28;20094;-64
2023/01/08 02:59:01;;;;;;;13.27;3.30;;;;;;;;;;5070123;28;20044;-64
2023/01/08 03:01:28;;;;;;;13.73;3.87;;;;;;;;;;5065419;28;20090;-64
2023/01/08 03:04:04;;;;;;;13.20;4.10;;;;;;;;;;5069686;28;20045;-64
2023/01/08 03:06:30;;;;;;;10.90;4.40;;;;;;;;;;5058815;28;20059;-64
2023/01/08 03:08:57;;;;;;;10.83;4.40;;;;;;;;;;5050548;28;20108;-64
2023/01/08 03:11:24;;;;;;;10.23;4.30;;;;;;;;;;5054134;28;20040;-64
2023/01/08 03:13:59;;;;;;;13.73;5.30;;;;;;;;;;5069953;28;20147;-64
2023/01/08 03:16:25;;;;;;;13.17;5.93;;;;;;;;;;5070414;28;20056;-64
2023/01/08 03:19:00;;;;;;;13.37;5.60;;;;;;;;;;5070127;28;20044;-64
2023/01/08 03:21:27;;;;;;;10.87;5.00;;;;;;;;;;5069162;28;20052;-64
2023/01/08 03:23:53;;;;;;;12.37;6.07;;;;;;;;;;5069926;28;20045;-64
2023/01/08 03:26:24;;;;;;;14.17;6.40;;;;;;;;;;5068438;28;20048;-64
2023/01/08 03:28:52;;;;;;;12.73;5.50;;;;;;;;;;5068114;28;20394;-64
2023/01/08 03:31:19;;;;;;;10.87;5.43;;;;;;;;;;5051208;28;20048;-64
2023/01/08 03:33:46;;;;;;;12.43;7.17;;;;;;;;;;5069620;28;20082;-64
2023/01/08 03:36:14;;;;;;;9.77;5.50;;;;;;;;;;5052914;28;20049;-64
2023/01/08 03:38:44;;;;;;;9.73;5.77;;;;;;;;;;5049350;28;20066;-64
2023/01/08 03:41:12;;;;;;;7.77;4.90;;;;;;;;;;5049601;28;20455;-64
2023/01/08 03:43:38;;;;;;;12.43;5.63;;;;;;;;;;5058848;28;20059;-64
2023/01/08 03:46:07;;;;;;;8.97;4.03;;;;;;;;;;5068571;28;20049;-64
2023/01/08 03:48:33;;;;;;;8.20;4.00;;;;;;;;;;5068873;28;20123;-64
2023/01/08 03:51:00;;;;;;;8.00;4.20;;;;;;;;;;5069065;28;20051;-64
2023/01/08 03:53:26;;;;;;;11.30;3.97;;;;;;;;;;5069246;28;20056;-64
2023/01/08 03:55:53;;;;;;;7.00;3.57;;;;;;;;;;5069526;28;20044;-64
2023/01/08 03:58:19;;;;;;;5.97;2.90;;;;;;;;;;5068876;28;20098;-64
2023/01/08 04:00:45;;;;;;;8.17;3.20;;;;;;;;;;5068796;28;20045;-64
2023/01/08 04:03:11;;;;;;;6.40;2.80;;;;;;;;;;5068855;28;20056;-64
2023/01/08 04:05:37;;;;;;;4.93;2.47;;;;;;;;;;5068926;28;20044;-64
2023/01/08 04:08:03;;;;;;;8.27;3.13;;;;;;;;;;5068654;28;20110;-63
2023/01/08 04:10:29;;;;;;;8.17;2.50;;;;;;;;;;5064620;28;20048;-64
2023/01/08 04:12:55;;;;;;;5.80;2.17;;;;;;;;;;5056907;28;20052;-64
2023/01/08 04:15:21;;;;;;;7.47;2.67;;;;;;;;;;5068845;28;20056;-64
2023/01/08 04:17:47;;;;;;;4.93;2.50;;;;;;;;;;5069221;28;20080;-64
2023/01/08 04:20:13;;;;;;;9.03;3.10;;;;;;;;;;5069144;28;20055;-64
2023/01/08 04:22:39;;;;;;;5.60;2.90;;;;;;;;;;5068167;28;20522;-64
2023/01/08 04:25:05;;;;;;;10.77;3.47;;;;;;;;;;5068755;28;20087;-64
2023/01/08 04:27:31;;;;;;;7.47;3.53;;;;;;;;;;5050196;28;20049;-65
2023/01/08 04:29:57;;;;;;;7.50;3.93;;;;;;;;;;5048612;28;20351;-65
2023/01/08 04:32:23;;;;;;;11.43;4.20;;;;;;;;;;5048604;28;20099;-65
2023/01/08 04:34:50;;;;;;;9.33;3.17;;;;;;;;;;5050320;28;21789;-65
2023/01/08 04:37:16;;;;;;;8.17;3.20;;;;;;;;;;5068437;28;20481;-65
2023/01/08 04:39:42;;;;;;;11.77;3.20;;;;;;;;;;5065892;28;20052;-65
2023/01/08 04:42:08;;;;;;;9.60;3.23;;;;;;;;;;5052223;28;20108;-65
2023/01/08 04:44:34;;;;;;;10.63;3.80;;;;;;;;;;5066726;28;20132;-65
2023/01/08 04:47:00;;;;;;;9.43;3.53;;;;;;;;;;5067948;28;20068;-64
2023/01/08 04:49:26;;;;;;;11.60;3.97;;;;;;;;;;5068366;28;20036;-64
2023/01/08 04:51:52;;;;;;;11.93;3.63;;;;;;;;;;5068293;28;20049;-66
2023/01/08 04:54:18;;;;;;;8.37;3.57;;;;;;;;;;5068230;28;20455;-65
2023/01/08 04:56:44;;;;;;;12.10;4.47;;;;;;;;;;5068371;28;20060;-65
2023/01/08 04:59:10;;;;;;;10.20;3.83;;;;;;;;;;5068799;28;20048;-65
2023/01/08 05:01:36;;;;;;;6.83;3.10;;;;;;;;;;5068150;28;20048;-64
2023/01/08 05:04:03;;;;;;;7.43;3.80;;;;;;;;;;5068343;28;20045;-64
2023/01/08 05:06:30;;;;;;;10.37;4.23;;;;;;;;;;5068298;28;20040;-65
2023/01/08 05:08:57;;;;;;;10.13;4.33;;;;;;;;;;5068751;28;20045;-64
2023/01/08 05:11:23;;;;;;;7.73;4.23;;;;;;;;;;5053732;28;20052;-65
2023/01/08 05:13:49;;;;;;;11.20;4.70;;;;;;;;;;5047888;28;20391;-65
2023/01/08 05:16:16;;;;;;;12.73;4.83;;;;;;;;;;5065797;28;20041;-65
2023/01/08 05:18:42;;;;;;;8.83;5.07;;;;;;;;;;5071823;28;20052;-65
2023/01/08 05:21:09;;;;;;;10.57;5.90;;;;;;;;;;5072290;28;20410;-64
2023/01/08 05:23:35;;;;;;;11.97;5.57;;;;;;;;;;5070695;28;20414;-64
2023/01/08 05:26:02;;;;;;;13.70;5.33;;;;;;;;;;5070734;28;20052;-64
2023/01/08 05:28:28;;;;;;;11.40;6.03;;;;;;;;;;5072105;28;20111;-65
2023/01/08 05:30:54;;;;;;;10.03;5.60;;;;;;;;;;5072054;28;20131;-65
2023/01/08 05:33:21;;;;;;;8.77;5.67;;;;;;;;;;5071300;28;20045;-64
2023/01/08 05:35:47;;;;;;;9.87;5.30;;;;;;;;;;5070794;28;20049;-64
2023/01/08 05:38:13;;;;;;;12.47;6.50;;;;;;;;;;5071581;28;20482;-65
2023/01/08 05:40:39;;;;;;;10.10;5.83;;;;;;;;;;5063012;28;20141;-64
2023/01/08 05:43:05;;;;;;;10.47;4.87;;;;;;;;;;5051835;28;20041;-65
2023/01/08 05:45:32;;;;;;;9.67;4.57;;;;;;;;;;5051673;28;20052;-65
2023/01/08 05:47:58;;;;;;;13.70;5.40;;;;;;;;;;5056890;28;20048;-65
2023/01/08 05:50:24;;;;;;;8.80;3.97;;;;;;;;;;5069922;28;20051;-65
2023/01/08 05:52:50;;;;;;;12.13;3.93;;;;;;;;;;5071568;28;20094;-64
2023/01/08 05:55:16;;;;;;;9.53;4.10;;;;;;;;;;5071700;28;20052;-65
2023/01/08 05:57:42;;;;;;;14.03;4.33;;;;;;;;;;5071133;28;20418;-65
2023/01/08 06:00:09;;;;;;;8.20;3.73;;;;;;;;;;5071386;28;20047;-65
2023/01/08 06:02:35;;;;;;;7.53;3.00;;;;;;;;;;5071606;28;20051;-65
2023/01/08 06:05:01;;;;;;;10.53;3.20;;;;;;;;;;5069945;28;20037;-64
2023/01/08 06:07:28;;;;;;;8.03;2.77;;;;;;;;;;5071424;28;20049;-65
2023/01/08 06:09:54;;;;;;;8.47;3.13;;;;;;;;;;5069377;28;20045;-64
2023/01/08 06:12:20;;;;;;;10.20;3.13;;;;;;;;;;5051090;28;20049;-65
2023/01/08 06:14:46;;;;;;;11.57;2.70;;;;;;;;;;5051310;28;20051;-64
2023/01/08 06:17:13;;;;;;;16.47;2.77;;;;;;;;;;5051170;28;20049;-64
2023/01/08 06:19:39;;;;;;;6.33;1.90;;;;;;;;;;5051834;28;20053;-64
2023/01/08 06:22:06;;;;;;;6.63;2.30;;;;;;;;;;5069476;28;20045;-65
2023/01/08 06:24:32;;;;;;;10.23;2.67;;;;;;;;;;5071397;28;20055;-65
2023/01/08 06:26:58;;;;;;;9.17;3.23;;;;;;;;;;5071098;28;20044;-64
2023/01/08 06:29:24;;;;;;;11.37;2.27;;;;;;;;;;5060961;28;20040;-64
2023/01/08 06:31:50;;;;;;;11.43;4.00;;;;;;;;;;5048962;28;20037;-64
2023/01/08 06:34:16;;;;;;;9.80;2.93;;;;;;;;;;5049804;28;20060;-64
2023/01/08 06:36:42;;;;;;;9.17;2.63;;;;;;;;;;5062899;28;20110;-64
2023/01/08 06:39:08;;;;;;;8.73;2.30;;;;;;;;;;5070924;28;20525;-65
2023/01/08 06:41:34;;;;;;;6.30;2.10;;;;;;;;;;5071125;28;20044;-64
2023/01/08 06:44:00;;;;;;;6.93;2.13;;;;;;;;;;5070925;28;20049;-65
2023/01/08 06:46:27;;;;;;;5.37;1.77;;;;;;;;;;5069953;28;20107;-65
2023/01/08 06:48:53;;;;;;;6.47;1.93;;;;;;;;;;5059914;28;20049;-65
2023/01/08 06:51:19;;;;;;;8.27;2.23;;;;;;;;;;5059903;28;20123;-65
2023/01/08 06:53:47;;;;;;;10.37;2.10;;;;;;;;;;5061714;28;20070;-65
2023/01/08 06:56:13;;;;;;;9.40;2.13;;;;;;;;;;5057837;28;20052;-65
2023/01/08 06:58:39;;;;;;;11.07;2.97;;;;;;;;;;5061775;28;20045;-66
2023/01/08 07:01:06;;;;;;;6.83;2.20;;;;;;;;;;5056849;28;20502;-67
2023/01/08 07:03:32;;;;;;;8.70;2.37;;;;;;;;;;5059765;28;20037;-65
2023/01/08 07:05:58;;;;;;;8.80;2.30;;;;;;;;;;5062670;28;20044;-66
2023/01/08 07:08:24;;;;;;;7.63;2.27;;;;;;;;;;5058994;28;20056;-66
2023/01/08 07:10:50;;;;;;;8.60;2.33;;;;;;;;;;5062990;28;20467;-66
2023/01/08 07:13:16;;;;;;;5.90;2.20;;;;;;;;;;5059057;28;20114;-66
2023/01/08 07:15:42;;;;;;;8.57;2.07;;;;;;;;;;5062318;28;20056;-66
2023/01/08 07:18:10;;;;;;;9.47;2.77;;;;;;;;;;5062257;28;20119;-65
2023/01/08 07:20:36;;;;;;;7.43;2.50;;;;;;;;;;5060339;28;20494;-65
2023/01/08 07:23:03;;;;;;;9.13;2.77;;;;;;;;;;5063249;28;20056;-65
2023/01/08 07:25:29;;;;;;;10.93;3.17;;;;;;;;;;5070830;28;20040;-65
2023/01/08 07:27:55;;;;;;;10.27;2.87;;;;;;;;;;5069871;28;20044;-65
2023/01/08 07:30:21;;;;;;;8.93;2.77;;;;;;;;;;5055275;28;20049;-65
2023/01/08 07:32:48;;;;;;;9.00;2.73;;;;;;;;;;5057013;28;20044;-65
2023/01/08 07:35:14;;;;;;;10.43;3.03;;;;;;;;;;5059524;28;20422;-65
2023/01/08 07:37:40;;;;;;;14.30;3.73;;;;;;;;;;5059941;28;20045;-65
2023/01/08 07:40:07;;;;;;;11.13;3.20;;;;;;;;;;5057015;28;20041;-65
2023/01/08 07:42:33;;;;;;;11.23;3.00;;;;;;;;;;5059826;28;20044;-66
2023/01/08 07:44:59;;;;;;;12.83;4.30;;;;;;;;;;5056576;28;20044;-65
2023/01/08 07:47:25;;;;;;;11.87;3.27;;;;;;;;;;5059403;28;20049;-66
2023/01/08 07:49:51;;;;;;;7.60;2.93;;;;;;;;;;5058233;28;20406;-66
2023/01/08 07:52:17;;;;;;;11.57;3.30;;;;;;;;;;5059870;28;20090;-65
2023/01/08 07:54:43;;;;;;;10.20;4.67;;;;;;;;;;5056233;28;20048;-65
2023/01/08 07:57:09;;;;;;;11.07;2.67;;;;;;;;;;5052546;28;20056;-65
2023/01/08 07:59:36;;;;;;;11.47;3.20;;;;;;;;;;5061988;28;20048;-66
2023/01/08 08:02:02;;;;;;;7.67;2.27;;;;;;;;;;5070116;28;20049;-65
2023/01/08 08:04:28;;;;;;;9.30;2.87;;;;;;;;;;5066463;28;20053;-65
2023/01/08 08:06:54;;;;;;;10.10;3.33;;;;;;;;;;5069652;28;20048;-65
2023/01/08 08:09:20;;;;;;;10.40;3.63;;;;;;;;;;5055622;28;20525;-65
2023/01/08 08:11:47;;;;;;;11.03;2.97;;;;;;;;;;5059718;28;20127;-65
2023/01/08 08:14:13;;;;;;;11.70;3.07;;;;;;;;;;5065231;28;20055;-66
2023/01/08 08:16:39;;;;;;;14.23;3.10;;;;;;;;;;5069875;28;20052;-65
2023/01/08 08:19:05;;;;;;;9.17;2.30;;;;;;;;;;5069848;28;20053;-65
2023/01/08 08:21:31;;;;;;;11.63;2.93;;;;;;;;;;5048704;28;20048;-65
2023/01/08 08:23:57;;;;;;;10.60;3.17;;;;;;;;;;5065253;28;20041;-65
2023/01/08 08:26:24;;;;;;;7.73;2.60;;;;;;;;;;5065671;28;20122;-66
2023/01/08 08:28:50;;;;;;;14.93;3.77;;;;;;;;;;5065701;28;20052;-65
2023/01/08 08:31:16;;;;;;;7.73;2.63;;;;;;;;;;5068421;28;20530;-66
2023/01/08 08:33:42;;;;;;;6.77;2.83;;;;;;;;;;5055065;28;20056;-66
2023/01/08 08:36:08;;;;;;;10.60;2.53;;;;;;;;;;5053188;28;20044;-66
2023/01/08 08:38:36;;;;;;;12.67;3.47;;;;;;;;;;5055022;28;20044;-65
2023/01/08 08:41:02;;;;;;;7.07;2.40;;;;;;;;;;5056266;28;20513;-66
2023/01/08 08:43:28;;;;;;;8.30;3.70;;;;;;;;;;5055420;28;20102;-65
2023/01/08 08:45:55;;;;;;;8.43;2.63;;;;;;;;;;5057683;28;20067;-65
2023/01/08 08:48:21;;;;;;;8.90;3.27;;;;;;;;;;5054675;28;20048;-65
2023/01/08 08:50:47;;;;;;;8.90;3.03;;;;;;;;;;5063795;28;20052;-65
2023/01/08 08:53:14;;;;;;;11.33;2.70;;;;;;;;;;5059439;28;20041;-65
2023/01/08 08:55:40;;;;;;;12.53;2.93;;;;;;;;;;5058425;28;20036;-66
2023/01/08 08:58:09;;;;;;;7.37;2.63;;;;;;;;;;5063037;28;20041;-65
2023/01/08 09:00:35;;;;;;;8.37;2.27;;;;;;;;;;5061645;28;20406;-65
2023/01/08 09:03:01;;;;;;;9.70;3.07;;;;;;;;;;5059642;28;20094;-65
2023/01/08 09:05:27;;;;;;;6.80;2.23;;;;;;;;;;5062407;28;20044;-65
2023/01/08 09:07:54;;;;;;;9.57;2.43;;;;;;;;;;5064832;28;20088;-65
2023/01/08 09:10:20;;;;;;;8.53;2.07;;;;;;;;;;5059105;28;20093;-65
2023/01/08 09:12:46;;;;;;;9.17;1.90;;;;;;;;;;5063814;28;20033;-65
2023/01/08 09:15:13;;;;;;;8.07;1.93;;;;;;;;;;5062608;28;20597;-65
2023/01/08 09:17:39;;;;;;;8.97;3.03;;;;;;;;;;5065407;28;20038;-65
2023/01/08 09:20:05;;;;;;;10.33;1.80;;;;;;;;;;5063795;28;20048;-65
2023/01/08 09:22:31;;;;;;;13.53;2.43;;;;;;;;;;5066096;28;20044;-65
2023/01/08 09:24:57;;;;;;;13.20;1.90;;;;;;;;;;5065396;28;20090;-65
2023/01/08 09:27:24;;;;;;;13.03;2.83;;;;;;;;;;5061627;28;20422;-65
2023/01/08 09:29:50;;;;;;;10.90;2.13;;;;;;;;;;5060970;28;20454;-65
2023/01/08 09:32:16;;;;;;;12.60;2.10;;;;;;;;;;5055989;28;20365;-65
2023/01/08 09:34:42;;;;;;;8.83;1.67;;;;;;;;;;5056886;28;20057;-67
2023/01/08 09:37:08;;;;;;;12.53;2.10;;;;;;;;;;5061750;28;20106;-66
2023/01/08 09:39:35;;;;;;;9.20;2.03;;;;;;;;;;5060320;28;20064;-66
2023/01/08 09:42:03;;;;;;;11.53;1.93;;;;;;;;;;5059001;28;20098;-66
2023/01/08 09:44:30;;;;;;;6.60;1.90;;;;;;;;;;5061945;28;20045;-66
2023/01/08 09:46:57;;;;;;;8.30;1.93;;;;;;;;;;5062299;28;20049;-66
2023/01/08 09:49:30;;;;;;;18.77;5.40;;;;;;;;;;5050036;28;20048;-66
2023/01/08 09:51:58;;;;;;;15.27;2.27;;;;;;;;;;5062598;28;20419;-65
2023/01/08 09:54:26;;;;;;;11.23;2.17;;;;;;;;;;5060401;28;20044;-66
2023/01/08 09:56:52;;;;;;;16.63;2.70;;;;;;;;;;5063762;28;20040;-66
2023/01/08 09:59:18;;;;;;;11.53;1.90;;;;;;;;;;5058581;28;20468;-66
2023/01/08 10:01:45;;;;;;;10.93;1.90;;;;;;;;;;5056407;28;20045;-66
2023/01/08 10:04:14;;;;;;;9.53;1.30;;;;;;;;;;5061552;28;20056;-66
2023/01/08 10:06:40;;;;;;;12.40;1.80;;;;;;;;;;5058919;28;20076;-66
2023/01/08 10:09:12;;;;;;;8.83;2.03;;;;;;;;;;5060346;28;20055;-66
2023/01/08 10:11:42;;;;;;;8.40;2.07;;;;;;;;;;5057233;28;20390;-66
2023/01/08 10:14:18;;;;;;;6.67;1.60;;;;;;;;;;5058740;28;20135;-65
2023/01/08 10:16:46;;;;;;;18.23;3.37;;;;;;;;;;5061227;28;20056;-65
2023/01/08 10:19:12;;;;;;;6.67;2.00;;;;;;;;;;5061034;28;20483;-64
2023/01/08 10:21:40;;;;;;;10.73;2.70;;;;;;;;;;5062203;28;20044;-65
2023/01/08 10:24:06;;;;;;;12.47;2.30;;;;;;;;;;5062119;28;20450;-64
2023/01/08 10:26:35;;;;;;;8.00;2.43;;;;;;;;;;5055455;28;20052;-65
2023/01/08 10:29:13;;;;;;;7.30;2.27;;;;;;;;;;5057028;28;20137;-65
2023/01/08 10:31:50;;;;;;;8.03;2.23;;;;;;;;;;5056584;28;20053;-65
2023/01/08 10:34:43;;;;;;;10.00;3.03;;;;;;;;;;5060606;28;20036;-64
2023/01/08 10:37:29;;;;;;;16.33;2.80;;;;;;;;;;5052777;28;20052;-64
2023/01/08 10:40:07;;;;;;;8.17;2.33;;;;;;;;;;5061004;28;20101;-64
2023/01/08 10:42:34;;;;;;;10.23;2.23;;;;;;;;;;5061516;28;20076;-64
2023/01/08 10:45:03;;;;;;;10.07;2.93;;;;;;;;;;5064107;28;20036;-65
2023/01/08 10:47:31;;;;;;;12.80;2.33;;;;;;;;;;5061334;28;20060;-64
2023/01/08 10:49:58;;;;;;;10.67;3.17;;;;;;;;;;5063794;28;20483;-64
2023/01/08 10:52:30;;;;;;;10.83;1.90;;;;;;;;;;5060975;28;20040;-64
2023/01/08 10:54:56;;;;;;;7.70;1.93;;;;;;;;;;5063957;28;20075;-64
2023/01/08 10:57:22;;;;;;;11.63;2.23;;;;;;;;;;5062942;28;20552;-64
2023/01/08 10:59:48;;;;;;;9.37;1.87;;;;;;;;;;5061606;28;20044;-64
2023/01/08 11:02:27;;;;;;;14.50;2.37;;;;;;;;;;5060434;28;20110;-64
2023/01/08 11:04:54;;;;;;;10.13;2.23;;;;;;;;;;5055916;28;20090;-64
2023/01/08 11:07:21;;;;;;;13.13;3.80;;;;;;;;;;5055943;28;20091;-64
2023/01/08 11:09:48;;;;;;;20.80;3.17;;;;;;;;;;5059269;28;20056;-63
2023/01/08 11:12:29;;;;;;;10.63;2.80;;;;;;;;;;5054541;28;20667;-64
2023/01/08 11:14:56;;;;;;;11.73;2.57;;;;;;;;;;5061694;28;20040;-63
2023/01/08 11:17:24;;;;;;;12.03;3.30;;;;;;;;;;5058896;28;20110;-64
2023/01/08 11:19:50;;;;;;;11.80;2.80;;;;;;;;;;5057368;28;20072;-64
2023/01/08 11:22:18;;;;;;;9.47;2.50;;;;;;;;;;5060286;28;20142;-64
2023/01/08 11:24:45;;;;;;;8.77;2.23;;;;;;;;;;5035095;28;20041;-63
2023/01/08 11:27:15;;;;;;;9.90;2.03;;;;;;;;;;5053554;28;20049;-64
2023/01/08 11:29:56;;;;;;;14.43;3.23;;;;;;;;;;5058698;28;20059;-64
2023/01/08 11:32:41;;;;;;;10.20;2.20;;;;;;;;;;5059804;28;20315;-64
2023/01/08 11:35:13;;;;;;;13.63;3.10;;;;;;;;;;5057142;28;20058;-64
2023/01/08 11:37:40;;;;;;;10.80;2.83;;;;;;;;;;5055720;28;20076;-64
2023/01/08 11:40:14;;;;;;;12.07;1.83;;;;;;;;;;5059596;28;20166;-64
2023/01/08 11:42:55;;;;;;;9.43;2.20;;;;;;;;;;5054846;28;20080;-64
2023/01/08 11:45:24;;;;;;;8.30;2.27;;;;;;;;;;5055348;28;20562;-64
2023/01/08 11:47:50;;;;;;;16.00;3.03;;;;;;;;;;5059065;28;20128;-64
2023/01/08 11:50:46;;;;;;;7.37;2.03;;;;;;;;;;5061837;28;20068;-64
2023/01/08 11:53:28;;;;;;;12.03;2.20;;;;;;;;;;5018222;28;20045;-64
2023/01/08 11:56:04;;;;;;;7.27;2.43;;;;;;;;;;5062172;28;20040;-64
2023/01/08 11:58:36;;;;;;;12.53;2.63;;;;;;;;;;5055662;28;20056;-64
2023/01/08 12:01:17;;;;;;;7.03;2.23;;;;;;;;;;5055093;28;20091;-63
2023/01/08 12:03:49;;;;;;;10.50;2.63;;;;;;;;;;5062316;28;20049;-63
2023/01/08 12:06:21;;;;;;;10.10;2.73;;;;;;;;;;5057079;28;20036;-64
2023/01/08 12:09:10;;;;;;;10.17;2.50;;;;;;;;;;5057292;28;20384;-64
2023/01/08 12:11:40;;;;;;;7.10;1.77;;;;;;;;;;5046844;28;20048;-64
2023/01/08 12:14:06;;;;;;;12.97;3.00;;;;;;;;;;5056303;28;20036;-64
2023/01/08 12:16:39;;;;;;;6.70;1.87;;;;;;;;;;5057533;28;20106;-64
2023/01/08 12:19:19;;;;;;;9.13;2.25;;;;;;;;;;5055842;28;20049;-63
2023/01/08 12:21:45;;;;;;;8.87;2.10;;;;;;;;;;5056600;28;20044;-64
2023/01/08 12:24:26;;;;;;;8.70;1.80;;;;;;;;;;5060618;28;20041;-63
2023/01/08 12:27:04;;;;;;;13.20;2.00;;;;;;;;;;5054808;28;20564;-63
2023/01/08 12:29:36;;;;;;;7.57;2.20;;;;;;;;;;5059190;28;20036;-64
2023/01/08 12:32:21;;;;;;;10.00;1.80;;;;;;;;;;5058096;28;20062;-64
2023/01/08 12:34:51;;;;;;;8.87;3.53;;;;;;;;;;5055721;28;20047;-63
2023/01/08 12:37:20;;;;;;;7.60;1.90;;;;;;;;;;5055356;28;20051;-64
2023/01/08 12:39:55;;;;;;;9.77;2.23;;;;;;;;;;5059328;28;20045;-64
2023/01/08 12:42:24;;;;;;;7.60;2.00;;;;;;;;;;5058059;28;20055;-64
2023/01/08 12:44:51;;;;;;;8.63;3.27;;;;;;;;;;5039981;28;20052;-64
2023/01/08 12:47:21;;;;;;;13.13;2.13;;;;;;;;;;5058370;28;20131;-64
2023/01/08 12:49:55;;;;;;;8.37;1.93;;;;;;;;;;5059150;28;20053;-64
2023/01/08 12:52:24;;;;;;;7.07;2.13;;;;;;;;;;5059584;28;20048;-64
2023/01/08 12:55:09;;;;;;;10.70;2.23;;;;;;;;;;5059006;28;20067;-63
2023/01/08 12:57:40;;;;;;;7.47;1.87;;;;;;;;;;5059297;28;20052;-64
2023/01/08 13:00:18;;;;;;;6.90;1.90;;;;;;;;;;5053482;28;20037;-64
2023/01/08 13:02:47;;;;;;;5.20;1.60;;;;;;;;;;5053508;28;20060;-64
2023/01/08 13:05:28;;;;;;;13.23;2.37;;;;;;;;;;5059920;28;20045;-63
2023/01/08 13:07:56;;;;;;;7.80;1.50;;;;;;;;;;5053432;28;20059;-64
2023/01/08 13:10:31;;;;;;;11.90;2.00;;;;;;;;;;5055328;28;20041;-64
2023/01/08 13:13:00;;;;;;;3.97;1.30;;;;;;;;;;5057757;28;20044;-64
2023/01/08 13:15:27;;;;;;;4.23;1.40;;;;;;;;;;5056444;28;20509;-64
2023/01/08 13:17:54;;;;;;;7.10;1.33;;;;;;;;;;5056182;28;20041;-64
2023/01/08 13:20:30;;;;;;;5.93;1.70;;;;;;;;;;5060101;28;20182;-64
2023/01/08 13:22:58;;;;;;;9.93;1.80;;;;;;;;;;5056939;28;20147;-64
2023/01/08 13:25:24;;;;;;;6.57;1.60;;;;;;;;;;5055260;28;20040;-64
2023/01/08 13:27:50;;;;;;;5.30;1.70;;;;;;;;;;5054582;28;20131;-64
2023/01/08 13:30:49;;;;;;;8.17;1.67;;;;;;;;;;5054711;28;20127;-64
2023/01/08 13:33:27;;;;;;;6.03;1.83;;;;;;;;;;5043964;28;20047;-63
2023/01/08 13:36:12;;;;;;;6.00;1.30;;;;;;;;;;5055883;28;20040;-64
2023/01/08 13:38:38;;;;;;;6.50;1.23;;;;;;;;;;5058374;28;20068;-64
2023/01/08 13:41:05;;;;;;;6.30;1.20;;;;;;;;;;5061911;28;20044;-63
2023/01/08 13:43:40;;;;;;;5.33;1.27;;;;;;;;;;5060551;28;20049;-64
2023/01/08 13:46:08;;;;;;;5.80;1.30;;;;;;;;;;5053486;28;20053;-64
2023/01/08 13:48:36;;;;;;;5.50;1.40;;;;;;;;;;5062891;28;20475;-63
2023/01/08 13:51:02;;;;;;;4.47;0.93;;;;;;;;;;5052701;28;20041;-64
2023/01/08 13:53:28;;;;;;;4.77;1.47;;;;;;;;;;5052566;28;20473;-63
2023/01/08 13:56:07;;;;;;;4.53;1.27;;;;;;;;;;5052596;28;20508;-63
2023/01/08 13:58:40;;;;;;;5.13;0.90;;;;;;;;;;5051138;28;20084;-64
2023/01/08 14:01:06;;;;;;;4.53;1.13;;;;;;;;;;5052725;28;20076;-63
2023/01/08 14:03:36;;;;;;;5.30;1.10;;;;;;;;;;5052468;28;20045;-64
2023/01/08 14:06:15;;;;;;;4.17;0.90;;;;;;;;;;5060492;28;20460;-63
2023/01/08 14:09:00;;;;;;;3.33;1.23;;;;;;;;;;5072315;28;20075;-63
2023/01/08 14:11:31;;;;;;;3.57;1.10;;;;;;;;;;5064527;28;20048;-63
2023/01/08 14:13:57;;;;;;;3.57;1.40;;;;;;;;;;5050633;28;20056;-63
2023/01/08 14:16:23;;;;;;;3.10;0.90;;;;;;;;;;5051384;28;20045;-63
2023/01/08 14:18:50;;;;;;;3.47;0.80;;;;;;;;;;5052283;28;20531;-63
2023/01/08 14:21:20;;;;;;;3.53;1.00;;;;;;;;;;5051951;28;20040;-64
2023/01/08 14:23:47;;;;;;;4.00;1.00;;;;;;;;;;5051412;28;20042;-63
2023/01/08 14:26:37;;;;;;;3.13;0.87;;;;;;;;;;5045379;28;20180;-62
2023/01/08 14:29:13;;;;;;;3.00;0.80;;;;;;;;;;5056184;28;20418;-63
2023/01/08 14:31:45;;;;;;;3.80;0.80;;;;;;;;;;5068625;28;20577;-62
2023/01/08 14:34:12;;;;;;;4.13;1.03;;;;;;;;;;5066942;28;20041;-63
2023/01/08 14:36:38;;;;;;;2.30;0.67;;;;;;;;;;5064705;28;20086;-63
2023/01/08 14:39:09;;;;;;;4.47;1.03;;;;;;;;;;5071157;28;20124;-62
2023/01/08 14:44:24;;;;;;;3.10;1.20;;;;;;;;;;5070276;28;20132;-63
2023/01/08 14:46:50;;;;;;;3.97;1.00;;;;;;;;;;5052298;28;20506;-62
2023/01/08 14:49:43;;;;;;;4.77;1.03;;;;;;;;;;5057041;28;20041;-62